createdAt,value
2022-10-19T00:01:19.107Z,86.70
2022-10-19T00:06:26.178Z,87.02
2022-10-19T00:09:01.130Z,87.03
2022-10-19T00:11:31.970Z,86.86
2022-10-19T00:13:59.644Z,87.08
2022-10-19T00:16:29.526Z,86.84
2022-10-19T00:18:58.206Z,86.80
2022-10-19T00:21:25.069Z,87.13
2022-10-19T00:23:51.740Z,86.64
2022-10-19T00:26:18.501Z,86.82
2022-10-19T00:28:45.719Z,86.74
2022-10-19T00:31:15.832Z,87.39
2022-10-19T00:33:44.520Z,87.38
2022-10-19T00:36:16.793Z,87.56
2022-10-19T00:38:43.410Z,87.65
2022-10-19T00:41:12.326Z,87.37
2022-10-19T00:43:56.675Z,87.54
2022-10-19T00:46:24.033Z,87.74
2022-10-19T00:48:54.813Z,87.27
2022-10-19T00:51:22.496Z,87.48
2022-10-19T00:53:49.412Z,87.93
2022-10-19T00:56:17.706Z,87.70
2022-10-19T00:58:45.341Z,87.73
2022-10-19T01:01:18.853Z,87.53
2022-10-19T01:03:45.878Z,87.52
2022-10-19T01:06:14.854Z,87.82
2022-10-19T01:08:41.486Z,88.05
2022-10-19T01:11:29.213Z,88.25
2022-10-19T01:14:34.268Z,88.05
2022-10-19T01:17:15.460Z,88.36
2022-10-19T01:19:51.215Z,88.16
2022-10-19T01:22:42.092Z,88.32
2022-10-19T01:25:24.021Z,88.63
2022-10-19T01:27:57.202Z,88.63
2022-10-19T01:30:36.864Z,88.53
2022-10-19T01:33:20.737Z,88.64
2022-10-19T01:35:58.202Z,88.97
2022-10-19T01:38:30.529Z,89.00
2022-10-19T01:41:17.630Z,89.28
2022-10-19T01:43:56.577Z,89.08
2022-10-19T01:46:37.523Z,89.30
2022-10-19T01:49:17.487Z,89.29
2022-10-19T01:51:51.863Z,89.35
2022-10-19T01:54:21.133Z,89.35
2022-10-19T01:56:50.899Z,89.28
2022-10-19T01:59:20.396Z,89.52
2022-10-19T02:01:52.754Z,89.54
2022-10-19T02:04:25.783Z,89.46
2022-10-19T02:06:54.133Z,89.73
2022-10-19T02:09:21.128Z,89.66
2022-10-19T02:12:01.494Z,89.32
2022-10-19T02:14:33.861Z,89.20
2022-10-19T02:17:08.980Z,89.64
2022-10-19T02:19:36.129Z,89.79
2022-10-19T02:22:05.283Z,88.83
2022-10-19T02:24:32.115Z,89.23
2022-10-19T02:27:00.991Z,89.41
2022-10-19T02:29:28.453Z,89.24
2022-10-19T02:31:55.498Z,89.65
2022-10-19T02:34:22.573Z,89.59
2022-10-19T02:36:51.838Z,89.46
2022-10-19T02:39:21.186Z,89.29
2022-10-19T02:42:00.587Z,89.49
2022-10-19T02:44:41.065Z,89.59
2022-10-19T02:47:25.564Z,89.75
2022-10-19T02:49:52.834Z,89.78
2022-10-19T02:52:20.069Z,89.78
2022-10-19T02:54:47.150Z,89.94
2022-10-19T02:57:25.267Z,90.20
2022-10-19T02:59:54.703Z,90.36
2022-10-19T03:02:21.710Z,90.61
2022-10-19T03:04:48.878Z,90.42
2022-10-19T03:07:23.412Z,90.50
2022-10-19T03:09:50.394Z,90.74
2022-10-19T03:12:17.481Z,90.88
2022-10-19T03:14:44.502Z,90.98
2022-10-19T03:17:13.832Z,90.79
2022-10-19T03:19:40.598Z,91.20
2022-10-19T03:22:07.593Z,91.39
2022-10-19T03:24:34.387Z,90.96
2022-10-19T03:27:01.123Z,90.83
2022-10-19T03:29:30.620Z,90.90
2022-10-19T03:31:57.589Z,90.96
2022-10-19T03:34:29.000Z,90.80
2022-10-19T03:36:56.845Z,91.10
2022-10-19T03:39:24.024Z,90.80
2022-10-19T03:41:50.961Z,91.53
2022-10-19T03:44:17.596Z,91.36
2022-10-19T03:46:44.372Z,91.63
2022-10-19T03:49:12.000Z,91.52
2022-10-19T03:51:38.603Z,91.66
2022-10-19T03:54:08.172Z,91.74
2022-10-19T03:56:36.354Z,91.72
2022-10-19T03:59:08.735Z,91.82
2022-10-19T04:01:42.668Z,91.85
2022-10-19T04:04:15.334Z,91.77
2022-10-19T04:06:44.491Z,91.56
2022-10-19T04:09:18.887Z,91.65
2022-10-19T04:11:46.163Z,91.76
2022-10-19T04:14:22.698Z,92.12
2022-10-19T04:17:03.405Z,92.27
2022-10-19T04:19:30.653Z,91.65
2022-10-19T04:21:57.647Z,91.51
2022-10-19T04:24:24.548Z,91.43
2022-10-19T04:26:57.444Z,91.55
2022-10-19T04:29:29.466Z,91.21
2022-10-19T04:31:58.281Z,91.33
2022-10-19T04:34:24.902Z,91.50
2022-10-19T04:36:53.454Z,91.49
2022-10-19T04:39:20.065Z,91.71
2022-10-19T04:41:46.875Z,91.13
2022-10-19T04:44:16.156Z,91.21
2022-10-19T04:46:42.878Z,91.24
2022-10-19T04:49:09.628Z,91.16
2022-10-19T04:51:36.281Z,91.01
2022-10-19T04:54:04.166Z,91.20
2022-10-19T04:56:32.735Z,91.34
2022-10-19T04:59:00.367Z,91.48
2022-10-19T05:01:30.512Z,91.58
2022-10-19T05:03:59.842Z,91.59
2022-10-19T05:06:27.162Z,91.58
2022-10-19T05:08:56.852Z,92.10
2022-10-19T05:11:25.985Z,92.26
2022-10-19T05:13:52.824Z,92.07
2022-10-19T05:16:21.848Z,91.92
2022-10-19T05:18:50.075Z,92.23
2022-10-19T05:21:17.545Z,92.18
2022-10-19T05:23:44.661Z,92.21
2022-10-19T05:26:14.642Z,91.71
2022-10-19T05:28:41.436Z,91.58
2022-10-19T05:31:12.964Z,91.54
2022-10-19T05:33:39.977Z,91.51
2022-10-19T05:36:21.367Z,91.54
2022-10-19T05:38:53.221Z,91.36
2022-10-19T05:41:21.437Z,91.72
2022-10-19T05:43:52.794Z,91.65
2022-10-19T05:46:19.781Z,91.72
2022-10-19T05:48:47.382Z,91.80
2022-10-19T05:51:16.725Z,91.50
2022-10-19T05:53:46.167Z,91.75
2022-10-19T05:56:18.618Z,91.76
2022-10-19T05:58:45.824Z,91.64
2022-10-19T06:01:14.087Z,91.95
2022-10-19T06:03:43.244Z,91.70
2022-10-19T06:06:10.448Z,91.71
2022-10-19T06:08:38.746Z,92.07
2022-10-19T06:11:15.983Z,92.17
2022-10-19T06:13:44.040Z,92.43
2022-10-19T06:16:14.291Z,92.77
2022-10-19T06:18:43.019Z,92.98
2022-10-19T06:21:16.214Z,92.91
2022-10-19T06:23:45.906Z,92.83
2022-10-19T06:26:14.478Z,92.49
2022-10-19T06:28:43.242Z,91.94
2022-10-19T06:31:10.858Z,91.94
2022-10-19T06:33:40.532Z,91.57
2022-10-19T06:36:12.977Z,91.66
2022-10-19T06:38:40.278Z,91.82
2022-10-19T06:41:06.970Z,91.46
2022-10-19T06:43:34.193Z,91.26
2022-10-19T06:46:08.726Z,91.48
2022-10-19T06:48:38.082Z,91.22
2022-10-19T06:51:09.706Z,91.27
2022-10-19T06:53:39.051Z,91.10
2022-10-19T06:56:06.964Z,91.33
2022-10-19T06:58:38.428Z,91.27
2022-10-19T07:01:10.234Z,91.45
2022-10-19T07:03:36.979Z,91.47
2022-10-19T07:06:13.774Z,91.63
2022-10-19T07:08:43.505Z,92.57
2022-10-19T07:11:16.317Z,93.89
2022-10-19T07:13:42.977Z,93.56
2022-10-19T07:16:20.940Z,93.01
2022-10-19T07:18:50.717Z,92.29
2022-10-19T07:21:19.019Z,92.30
2022-10-19T07:23:47.510Z,91.69
2022-10-19T07:26:17.594Z,91.98
2022-10-19T07:28:49.279Z,91.52
2022-10-19T07:31:21.311Z,91.64
2022-10-19T07:33:52.356Z,91.52
2022-10-19T07:36:23.998Z,92.93
2022-10-19T07:38:52.033Z,92.57
2022-10-19T07:41:21.556Z,92.14
2022-10-19T07:43:49.664Z,91.72
2022-10-19T07:46:24.278Z,91.83
2022-10-19T07:48:51.620Z,91.24
2022-10-19T07:51:19.849Z,91.28
2022-10-19T07:53:47.707Z,91.34
2022-10-19T07:56:16.832Z,91.49
2022-10-19T07:58:44.004Z,91.78
2022-10-19T08:01:13.585Z,91.49
2022-10-19T08:04:42.710Z,90.97
2022-10-19T08:06:28.280Z,91.54
2022-10-19T08:08:57.554Z,91.18
2022-10-19T08:11:30.808Z,91.03
2022-10-19T08:14:02.804Z,90.40
2022-10-19T08:16:40.576Z,90.75
2022-10-19T08:19:15.720Z,90.66
2022-10-19T08:21:47.667Z,89.94
2022-10-19T08:24:17.511Z,90.00
2022-10-19T08:26:45.252Z,90.23
2022-10-19T08:29:13.290Z,90.13
2022-10-19T08:31:40.565Z,90.10
2022-10-19T08:34:10.065Z,90.02
2022-10-19T08:36:39.368Z,89.55
2022-10-19T08:39:09.081Z,89.54
2022-10-19T08:41:54.542Z,89.96
2022-10-19T08:44:48.808Z,89.69
2022-10-19T08:47:36.100Z,89.47
2022-10-19T08:50:10.274Z,87.11
2022-10-19T08:52:38.612Z,83.04
2022-10-19T08:55:16.426Z,81.22
2022-10-19T08:58:05.064Z,80.06
2022-10-19T09:00:55.223Z,79.64
2022-10-19T09:03:54.338Z,79.24
2022-10-19T09:06:22.271Z,78.74
2022-10-19T09:08:53.178Z,78.79
2022-10-19T09:11:26.078Z,78.90
2022-10-19T09:14:05.442Z,78.94
2022-10-19T09:16:35.318Z,78.58
2022-10-19T09:19:03.942Z,79.81
2022-10-19T09:21:51.015Z,78.82
2022-10-19T09:24:32.689Z,78.58
2022-10-19T09:27:01.793Z,78.40
2022-10-19T09:29:40.918Z,78.47
2022-10-19T09:32:24.716Z,78.79
2022-10-19T09:34:54.553Z,78.76
2022-10-19T09:37:26.353Z,79.16
2022-10-19T09:39:56.600Z,78.37
2022-10-19T09:42:26.456Z,78.13
2022-10-19T09:44:55.100Z,76.91
2022-10-19T09:47:32.298Z,75.71
2022-10-19T09:50:20.371Z,76.23
2022-10-19T09:52:52.438Z,76.38
2022-10-19T09:55:38.224Z,76.78
2022-10-19T09:58:17.335Z,76.30
2022-10-19T10:00:50.945Z,76.32
2022-10-19T10:03:43.726Z,76.86
2022-10-19T10:06:16.402Z,76.47
2022-10-19T10:08:52.923Z,76.07
2022-10-19T10:11:29.788Z,75.70
2022-10-19T10:13:58.508Z,75.50
2022-10-19T10:16:30.517Z,75.42
2022-10-19T10:19:17.380Z,75.46
2022-10-19T10:21:52.433Z,75.40
2022-10-19T10:24:21.248Z,75.19
2022-10-19T10:26:51.312Z,74.88
2022-10-19T10:29:35.602Z,74.81
2022-10-19T10:32:07.961Z,74.54
2022-10-19T10:34:46.001Z,74.00
2022-10-19T10:37:22.485Z,73.58
2022-10-19T10:39:57.833Z,73.59
2022-10-19T10:42:43.554Z,73.29
2022-10-19T10:45:39.489Z,73.16
2022-10-19T10:48:25.665Z,72.65
2022-10-19T10:50:53.051Z,72.49
2022-10-19T10:53:33.780Z,72.53
2022-10-19T10:56:05.696Z,72.06
2022-10-19T10:58:50.196Z,72.36
2022-10-19T11:01:22.444Z,71.66
2022-10-19T11:04:22.361Z,71.54
2022-10-19T11:06:59.205Z,71.15
2022-10-19T11:09:38.402Z,70.94
2022-10-19T11:12:14.740Z,70.63
2022-10-19T11:14:51.971Z,70.35
2022-10-19T11:17:24.092Z,70.54
2022-10-19T11:19:51.488Z,70.51
2022-10-19T11:23:04.732Z,70.28
2022-10-19T11:25:43.671Z,69.43
2022-10-19T11:28:13.481Z,69.53
2022-10-19T11:31:10.888Z,69.54
2022-10-19T11:33:48.807Z,68.61
2022-10-19T11:36:53.506Z,68.80
2022-10-19T11:39:23.195Z,68.76
2022-10-19T11:42:34.672Z,68.79
2022-10-19T11:45:05.136Z,67.67
2022-10-19T11:48:09.589Z,67.38
2022-10-19T11:50:39.398Z,67.25
2022-10-19T11:53:33.217Z,67.10
2022-10-19T11:56:09.309Z,66.75
2022-10-19T11:58:42.162Z,66.76
2022-10-19T12:01:35.510Z,66.57
2022-10-19T12:04:42.681Z,66.75
2022-10-19T12:07:36.936Z,66.27
2022-10-19T12:10:31.324Z,66.44
2022-10-19T12:13:02.785Z,66.02
2022-10-19T12:15:41.839Z,66.06
2022-10-19T12:18:23.907Z,66.22
2022-10-19T12:20:53.792Z,66.19
2022-10-19T12:23:31.110Z,65.44
2022-10-19T12:26:00.198Z,65.48
2022-10-19T12:28:35.924Z,64.75
2022-10-19T12:31:11.506Z,65.39
2022-10-19T12:33:47.446Z,64.77
2022-10-19T12:36:45.042Z,65.05
2022-10-19T12:39:26.547Z,64.70
2022-10-19T12:42:10.673Z,64.85
2022-10-19T12:45:05.881Z,65.15
2022-10-19T12:47:32.889Z,63.93
2022-10-19T12:50:00.255Z,64.02
2022-10-19T12:52:45.620Z,64.21
2022-10-19T12:55:17.742Z,64.00
2022-10-19T12:57:48.462Z,64.57
2022-10-19T13:00:25.228Z,64.40
2022-10-19T13:03:06.474Z,64.80
2022-10-19T13:05:34.852Z,64.73
2022-10-19T13:08:06.112Z,64.61
2022-10-19T13:10:35.277Z,64.20
2022-10-19T13:13:03.286Z,64.47
2022-10-19T13:15:36.333Z,64.61
2022-10-19T13:18:16.327Z,64.67
2022-10-19T13:20:53.497Z,64.72
2022-10-19T13:23:20.358Z,64.85
2022-10-19T13:25:47.437Z,64.70
2022-10-19T13:28:15.344Z,64.73
2022-10-19T13:30:42.311Z,64.64
2022-10-19T13:33:25.243Z,64.61
2022-10-19T13:36:04.224Z,64.49
2022-10-19T13:38:40.352Z,64.00
2022-10-19T13:41:22.374Z,64.56
2022-10-19T13:44:01.333Z,64.59
2022-10-19T13:46:30.983Z,64.74
2022-10-19T13:49:03.478Z,64.68
2022-10-19T13:51:55.060Z,64.99
2022-10-19T13:54:49.249Z,64.20
2022-10-19T13:57:23.007Z,64.45
2022-10-19T14:00:05.587Z,64.54
2022-10-19T14:02:46.432Z,64.62
2022-10-19T14:05:22.213Z,64.81
2022-10-19T14:08:12.159Z,64.76
2022-10-19T14:13:26.598Z,64.91
2022-10-19T14:15:57.606Z,64.96
2022-10-19T14:18:34.102Z,64.95
2022-10-19T14:21:07.043Z,64.94
2022-10-19T14:23:40.463Z,64.89
2022-10-19T14:26:15.380Z,64.70
2022-10-19T14:28:45.076Z,65.03
2022-10-19T14:31:21.874Z,64.93
2022-10-19T14:33:58.367Z,65.38
2022-10-19T14:36:30.884Z,65.43
2022-10-19T14:38:57.767Z,65.85
2022-10-19T14:41:27.781Z,65.65
2022-10-19T14:43:58.463Z,65.38
2022-10-19T14:46:31.058Z,65.58
2022-10-19T14:49:02.835Z,65.53
2022-10-19T14:51:35.626Z,65.60
2022-10-19T14:54:11.638Z,65.46
2022-10-19T14:56:55.116Z,65.54
2022-10-19T14:59:46.186Z,65.58
2022-10-19T15:02:22.717Z,65.79
2022-10-19T15:04:51.475Z,66.20
2022-10-19T15:07:25.849Z,66.40
2022-10-19T15:09:56.804Z,66.74
2022-10-19T15:12:30.412Z,67.12
2022-10-19T15:15:00.142Z,66.82
2022-10-19T15:17:32.171Z,67.25
2022-10-19T15:20:02.712Z,66.92
2022-10-19T15:22:32.415Z,67.22
2022-10-19T15:25:08.337Z,67.65
2022-10-19T15:27:37.844Z,68.03
2022-10-19T15:30:21.199Z,68.15
2022-10-19T15:32:51.059Z,68.46
2022-10-19T15:35:31.719Z,68.92
2022-10-19T15:38:23.464Z,68.97
2022-10-19T15:40:57.344Z,69.26
2022-10-19T15:43:38.498Z,69.62
2022-10-19T15:46:31.147Z,69.85
2022-10-19T15:49:00.580Z,69.76
2022-10-19T15:51:27.258Z,70.50
2022-10-19T15:53:55.906Z,70.35
2022-10-19T15:56:24.783Z,70.77
2022-10-19T15:58:53.141Z,70.82
2022-10-19T16:01:24.990Z,71.00
2022-10-19T16:03:52.589Z,71.05
2022-10-19T16:06:23.317Z,71.10
2022-10-19T16:08:51.301Z,71.17
2022-10-19T16:11:23.117Z,71.59
2022-10-19T16:13:50.252Z,71.92
2022-10-19T16:16:28.367Z,71.90
2022-10-19T16:18:55.664Z,72.29
2022-10-19T16:21:26.319Z,72.41
2022-10-19T16:23:53.536Z,72.34
2022-10-19T16:26:23.499Z,72.54
2022-10-19T16:28:53.236Z,72.79
2022-10-19T16:31:20.513Z,72.98
2022-10-19T16:33:47.151Z,73.17
2022-10-19T16:36:14.155Z,73.25
2022-10-19T16:38:40.731Z,73.56
2022-10-19T16:41:09.497Z,73.42
2022-10-19T16:43:38.746Z,73.72
2022-10-19T16:46:06.357Z,73.85
2022-10-19T16:48:34.993Z,73.85
2022-10-19T16:51:07.916Z,73.97
2022-10-19T16:53:35.349Z,74.04
2022-10-19T16:56:07.386Z,74.10
2022-10-19T16:58:34.067Z,74.21
2022-10-19T17:01:09.405Z,74.91
2022-10-19T17:03:36.517Z,74.69
2022-10-19T17:06:05.140Z,74.52
2022-10-19T17:08:36.920Z,74.67
2022-10-19T17:11:23.807Z,74.64
2022-10-19T17:13:52.971Z,74.45
2022-10-19T17:16:21.622Z,74.49
2022-10-19T17:18:48.964Z,74.84
2022-10-19T17:21:22.903Z,74.93
2022-10-19T17:23:55.436Z,75.23
2022-10-19T17:26:30.913Z,75.11
2022-10-19T17:28:59.051Z,74.92
2022-10-19T17:31:26.915Z,74.99
2022-10-19T17:33:54.777Z,74.90
2022-10-19T17:36:28.326Z,74.99
2022-10-19T17:39:03.865Z,74.89
2022-10-19T17:41:31.135Z,74.97
2022-10-19T17:43:58.790Z,75.08
2022-10-19T17:46:30.757Z,75.04
2022-10-19T17:49:00.598Z,75.42
2022-10-19T17:51:32.568Z,75.50
2022-10-19T17:54:05.009Z,75.65
2022-10-19T17:56:32.260Z,75.63
2022-10-19T17:59:00.103Z,75.86
2022-10-19T18:01:26.884Z,75.86
2022-10-19T18:03:57.066Z,76.08
2022-10-19T18:06:31.610Z,76.11
2022-10-19T18:08:59.976Z,75.82
2022-10-19T18:11:32.099Z,76.29
2022-10-19T18:14:01.659Z,76.25
2022-10-19T18:16:31.304Z,76.25
2022-10-19T18:19:00.249Z,76.15
2022-10-19T18:21:34.560Z,76.29
2022-10-19T18:24:02.378Z,76.31
2022-10-19T18:26:31.274Z,76.39
2022-10-19T18:28:59.632Z,76.40
2022-10-19T18:31:31.736Z,76.51
2022-10-19T18:34:06.560Z,76.62
2022-10-19T18:36:33.952Z,76.76
2022-10-19T18:39:03.767Z,76.82
2022-10-19T18:41:30.912Z,76.68
2022-10-19T18:44:03.702Z,77.29
2022-10-19T18:46:31.250Z,76.98
2022-10-19T18:48:59.249Z,77.74
2022-10-19T18:51:27.086Z,77.21
2022-10-19T18:53:53.767Z,77.47
2022-10-19T18:56:22.844Z,77.58
2022-10-19T18:58:49.843Z,77.67
2022-10-19T19:01:22.994Z,77.60
2022-10-19T19:03:51.487Z,77.47
2022-10-19T19:06:29.579Z,77.47
2022-10-19T19:09:01.212Z,77.48
2022-10-19T19:11:33.015Z,77.70
2022-10-19T19:14:06.936Z,77.74
2022-10-19T19:16:38.107Z,77.94
2022-10-19T19:19:06.468Z,77.99
2022-10-19T19:21:34.983Z,78.19
2022-10-19T19:24:05.909Z,78.05
2022-10-19T19:26:42.923Z,78.24
2022-10-19T19:29:12.220Z,78.31
2022-10-19T19:31:39.412Z,77.86
2022-10-19T19:34:06.855Z,78.31
2022-10-19T19:36:33.500Z,78.12
2022-10-19T19:39:03.798Z,78.63
2022-10-19T19:41:32.775Z,78.81
2022-10-19T19:44:02.695Z,78.57
2022-10-19T19:46:29.930Z,78.97
2022-10-19T19:49:04.611Z,78.95
2022-10-19T19:51:35.295Z,79.13
2022-10-19T19:54:01.835Z,79.02
2022-10-19T19:56:29.270Z,78.93
2022-10-19T19:59:00.072Z,79.38
2022-10-19T20:01:27.034Z,79.25
2022-10-19T20:03:53.763Z,79.19
2022-10-19T20:06:23.665Z,79.08
2022-10-19T20:08:52.889Z,78.86
2022-10-19T20:11:25.962Z,79.51
2022-10-19T20:13:53.133Z,79.21
2022-10-19T20:16:29.030Z,79.35
2022-10-19T20:19:01.399Z,79.53
2022-10-19T20:21:28.281Z,79.64
2022-10-19T20:23:54.874Z,79.77
2022-10-19T20:26:25.722Z,79.68
2022-10-19T20:28:55.027Z,80.13
2022-10-19T20:31:24.188Z,79.92
2022-10-19T20:33:50.877Z,80.32
2022-10-19T20:36:23.330Z,80.44
2022-10-19T20:38:55.811Z,80.63
2022-10-19T20:41:27.060Z,80.34
2022-10-19T20:43:54.390Z,80.40
2022-10-19T20:46:29.174Z,80.55
2022-10-19T20:48:59.589Z,80.43
2022-10-19T20:51:31.890Z,80.90
2022-10-19T20:54:00.808Z,80.46
2022-10-19T20:56:34.177Z,80.79
2022-10-19T21:01:32.343Z,80.71
2022-10-19T21:04:01.486Z,81.25
2022-10-19T21:06:30.635Z,81.34
2022-10-19T21:08:58.278Z,81.50
2022-10-19T21:11:28.290Z,81.23
2022-10-19T21:13:59.935Z,81.33
2022-10-19T21:16:30.397Z,81.65
2022-10-19T21:18:57.446Z,81.59
2022-10-19T21:21:28.979Z,81.34
2022-10-19T21:24:01.741Z,81.51
2022-10-19T21:26:29.083Z,81.95
2022-10-19T21:28:56.392Z,81.97
2022-10-19T21:31:25.065Z,81.80
2022-10-19T21:33:55.075Z,82.07
2022-10-19T21:36:25.103Z,81.60
2022-10-19T21:38:54.156Z,82.43
2022-10-19T21:41:25.350Z,82.41
2022-10-19T21:43:53.538Z,82.29
2022-10-19T21:46:22.208Z,82.61
2022-10-19T21:48:52.111Z,82.55
2022-10-19T21:51:21.872Z,82.69
2022-10-19T21:53:48.849Z,82.55
2022-10-19T21:56:18.576Z,82.77
2022-10-19T21:58:52.292Z,82.95
2022-10-19T22:01:21.404Z,82.81
2022-10-19T22:03:48.153Z,82.97
2022-10-19T22:06:15.193Z,82.54
2022-10-19T22:08:45.779Z,82.74
2022-10-19T22:11:13.986Z,82.75
2022-10-19T22:13:43.409Z,82.65
2022-10-19T22:16:15.955Z,83.13
2022-10-19T22:18:43.196Z,82.91
2022-10-19T22:21:14.526Z,83.32
2022-10-19T22:23:42.041Z,82.88
2022-10-19T22:26:13.550Z,82.54
2022-10-19T22:28:40.378Z,82.60
2022-10-19T22:31:07.013Z,82.96
2022-10-19T22:33:37.200Z,82.82
2022-10-19T22:36:06.501Z,83.33
2022-10-19T22:38:34.161Z,83.33
2022-10-19T22:41:58.752Z,83.35
2022-10-19T22:44:25.533Z,82.90
2022-10-19T22:46:52.246Z,83.17
2022-10-19T22:49:21.488Z,83.71
2022-10-19T22:51:48.352Z,83.79
2022-10-19T22:54:15.441Z,83.63
2022-10-19T22:56:42.986Z,83.49
2022-10-19T22:59:10.064Z,83.64
2022-10-19T23:01:37.923Z,83.97
2022-10-19T23:04:07.523Z,83.76
2022-10-19T23:06:34.189Z,83.89
2022-10-19T23:09:00.875Z,83.81
2022-10-19T23:11:28.329Z,83.93
2022-10-19T23:13:57.129Z,83.64
2022-10-19T23:18:57.899Z,84.22
2022-10-19T23:21:24.557Z,84.08
2022-10-19T23:23:54.131Z,84.29
2022-10-19T23:26:22.168Z,84.17
2022-10-19T23:28:50.073Z,84.30
2022-10-19T23:31:26.235Z,84.62
2022-10-19T23:33:53.741Z,84.23
2022-10-19T23:36:27.057Z,84.17
2022-10-19T23:38:59.990Z,84.54
2022-10-19T23:41:26.874Z,84.61
2022-10-19T23:43:55.882Z,84.82
2022-10-19T23:46:22.586Z,85.10
2022-10-19T23:48:49.348Z,84.66
2022-10-19T23:51:19.087Z,85.38
2022-10-19T23:53:48.068Z,85.39
2022-10-19T23:56:22.310Z,85.36
2022-10-19T23:58:49.456Z,85.60
